sensor_id;sensor_type;location;lat;lon;timestamp;P1;durP1;ratioP1;P2;durP2;ratioP2
23702;SDS011;12030;50.376;8.762;2023-07-13T00:01:27;4.20;;;1.27;;
23702;SDS011;12030;50.376;8.762;2023-07-13T00:03:53;3.17;;;1.30;;
23702;SDS011;12030;50.376;8.762;2023-07-13T00:06:20;2.70;;;1.50;;
23702;SDS011;12030;50.376;8.762;2023-07-13T00:08:46;3.10;;;1.20;;
23702;SDS011;12030;50.376;8.762;2023-07-13T00:11:12;3.72;;;1.17;;
23702;SDS011;12030;50.376;8.762;2023-07-13T00:13:39;3.17;;;1.50;;
23702;SDS011;12030;50.376;8.762;2023-07-13T00:16:05;1.90;;;1.27;;
23702;SDS011;12030;50.376;8.762;2023-07-13T00:18:32;3.00;;;1.20;;
23702;SDS011;12030;50.376;8.762;2023-07-13T00:20:57;1.73;;;1.20;;
23702;SDS011;12030;50.376;8.762;2023-07-13T00:23:40;2.72;;;1.30;;
23702;SDS011;12030;50.376;8.762;2023-07-13T00:26:07;3.07;;;1.27;;
23702;SDS011;12030;50.376;8.762;2023-07-13T00:28:34;2.55;;;1.17;;
23702;SDS011;12030;50.376;8.762;2023-07-13T00:31:00;2.40;;;1.23;;
23702;SDS011;12030;50.376;8.762;2023-07-13T00:33:29;4.35;;;1.27;;
23702;SDS011;12030;50.376;8.762;2023-07-13T00:35:55;2.28;;;1.30;;
23702;SDS011;12030;50.376;8.762;2023-07-13T00:38:21;3.70;;;1.40;;
23702;SDS011;12030;50.376;8.762;2023-07-13T00:40:47;4.63;;;1.30;;
23702;SDS011;12030;50.376;8.762;2023-07-13T00:43:22;3.00;;;1.23;;
23702;SDS011;12030;50.376;8.762;2023-07-13T00:48:16;2.30;;;1.20;;
23702;SDS011;12030;50.376;8.762;2023-07-13T00:50:45;3.83;;;1.13;;
23702;SDS011;12030;50.376;8.762;2023-07-13T00:53:13;3.05;;;1.30;;
23702;SDS011;12030;50.376;8.762;2023-07-13T00:55:39;2.40;;;1.20;;
23702;SDS011;12030;50.376;8.762;2023-07-13T00:58:05;2.30;;;1.10;;
23702;SDS011;12030;50.376;8.762;2023-07-13T01:00:32;2.83;;;1.10;;
23702;SDS011;12030;50.376;8.762;2023-07-13T01:03:02;2.70;;;1.20;;
23702;SDS011;12030;50.376;8.762;2023-07-13T01:05:29;3.95;;;1.15;;
23702;SDS011;12030;50.376;8.762;2023-07-13T01:07:57;3.78;;;1.20;;
23702;SDS011;12030;50.376;8.762;2023-07-13T01:10:22;3.70;;;1.00;;
23702;SDS011;12030;50.376;8.762;2023-07-13T01:12:48;2.85;;;1.10;;
23702;SDS011;12030;50.376;8.762;2023-07-13T01:17:58;2.35;;;1.02;;
23702;SDS011;12030;50.376;8.762;2023-07-13T01:20:23;2.65;;;1.10;;
23702;SDS011;12030;50.376;8.762;2023-07-13T01:22:49;2.17;;;1.23;;
23702;SDS011;12030;50.376;8.762;2023-07-13T01:25:15;2.92;;;1.23;;
23702;SDS011;12030;50.376;8.762;2023-07-13T01:27:41;3.10;;;1.00;;
23702;SDS011;12030;50.376;8.762;2023-07-13T01:30:07;3.77;;;1.07;;
23702;SDS011;12030;50.376;8.762;2023-07-13T01:32:32;2.78;;;0.90;;
23702;SDS011;12030;50.376;8.762;2023-07-13T01:34:59;2.80;;;1.03;;
23702;SDS011;12030;50.376;8.762;2023-07-13T01:37:25;1.80;;;1.02;;
23702;SDS011;12030;50.376;8.762;2023-07-13T01:39:52;4.67;;;1.10;;
23702;SDS011;12030;50.376;8.762;2023-07-13T01:42:18;3.53;;;1.00;;
23702;SDS011;12030;50.376;8.762;2023-07-13T01:44:44;2.83;;;1.10;;
23702;SDS011;12030;50.376;8.762;2023-07-13T01:47:09;3.40;;;1.13;;
23702;SDS011;12030;50.376;8.762;2023-07-13T01:49:35;4.60;;;0.97;;
23702;SDS011;12030;50.376;8.762;2023-07-13T01:52:02;3.60;;;1.00;;
23702;SDS011;12030;50.376;8.762;2023-07-13T01:54:28;3.13;;;1.00;;
23702;SDS011;12030;50.376;8.762;2023-07-13T01:56:54;2.35;;;1.08;;
23702;SDS011;12030;50.376;8.762;2023-07-13T01:59:19;3.55;;;1.05;;
23702;SDS011;12030;50.376;8.762;2023-07-13T02:01:45;3.63;;;1.17;;
23702;SDS011;12030;50.376;8.762;2023-07-13T02:04:10;5.43;;;1.10;;
23702;SDS011;12030;50.376;8.762;2023-07-13T02:06:36;4.57;;;1.00;;
23702;SDS011;12030;50.376;8.762;2023-07-13T02:09:01;3.80;;;1.00;;
23702;SDS011;12030;50.376;8.762;2023-07-13T02:11:27;5.10;;;1.13;;
23702;SDS011;12030;50.376;8.762;2023-07-13T02:13:59;5.10;;;1.00;;
23702;SDS011;12030;50.376;8.762;2023-07-13T02:16:28;4.25;;;1.27;;
23702;SDS011;12030;50.376;8.762;2023-07-13T02:18:54;3.63;;;1.30;;
23702;SDS011;12030;50.376;8.762;2023-07-13T02:21:20;2.70;;;1.10;;
23702;SDS011;12030;50.376;8.762;2023-07-13T02:23:47;4.13;;;1.13;;
23702;SDS011;12030;50.376;8.762;2023-07-13T02:26:14;3.50;;;1.00;;
23702;SDS011;12030;50.376;8.762;2023-07-13T02:28:39;3.33;;;0.98;;
23702;SDS011;12030;50.376;8.762;2023-07-13T02:31:06;2.47;;;0.90;;
23702;SDS011;12030;50.376;8.762;2023-07-13T02:33:35;3.60;;;0.95;;
23702;SDS011;12030;50.376;8.762;2023-07-13T02:36:01;3.97;;;1.00;;
23702;SDS011;12030;50.376;8.762;2023-07-13T02:38:27;3.80;;;0.93;;
23702;SDS011;12030;50.376;8.762;2023-07-13T02:40:52;2.40;;;1.00;;
23702;SDS011;12030;50.376;8.762;2023-07-13T02:43:18;4.47;;;1.10;;
23702;SDS011;12030;50.376;8.762;2023-07-13T02:45:44;2.53;;;0.90;;
23702;SDS011;12030;50.376;8.762;2023-07-13T02:48:10;3.65;;;0.98;;
23702;SDS011;12030;50.376;8.762;2023-07-13T02:50:35;2.87;;;0.83;;
23702;SDS011;12030;50.376;8.762;2023-07-13T02:53:01;3.47;;;0.97;;
23702;SDS011;12030;50.376;8.762;2023-07-13T02:55:27;2.87;;;1.10;;
23702;SDS011;12030;50.376;8.762;2023-07-13T02:57:52;3.13;;;1.17;;
23702;SDS011;12030;50.376;8.762;2023-07-13T03:00:19;2.17;;;0.90;;
23702;SDS011;12030;50.376;8.762;2023-07-13T03:02:45;3.67;;;0.90;;
23702;SDS011;12030;50.376;8.762;2023-07-13T03:05:10;4.60;;;0.93;;
23702;SDS011;12030;50.376;8.762;2023-07-13T03:07:37;4.00;;;0.98;;
23702;SDS011;12030;50.376;8.762;2023-07-13T03:10:04;3.83;;;1.10;;
23702;SDS011;12030;50.376;8.762;2023-07-13T03:12:31;4.57;;;0.90;;
23702;SDS011;12030;50.376;8.762;2023-07-13T03:14:57;2.27;;;0.80;;
23702;SDS011;12030;50.376;8.762;2023-07-13T03:17:22;4.60;;;1.00;;
23702;SDS011;12030;50.376;8.762;2023-07-13T03:19:48;5.43;;;1.08;;
23702;SDS011;12030;50.376;8.762;2023-07-13T03:22:16;4.43;;;1.17;;
23702;SDS011;12030;50.376;8.762;2023-07-13T03:24:43;3.65;;;0.98;;
23702;SDS011;12030;50.376;8.762;2023-07-13T03:27:09;4.82;;;1.00;;
23702;SDS011;12030;50.376;8.762;2023-07-13T03:29:34;3.37;;;1.10;;
23702;SDS011;12030;50.376;8.762;2023-07-13T03:32:00;3.63;;;1.00;;
23702;SDS011;12030;50.376;8.762;2023-07-13T03:34:25;2.73;;;0.93;;
23702;SDS011;12030;50.376;8.762;2023-07-13T03:36:53;2.65;;;0.70;;
23702;SDS011;12030;50.376;8.762;2023-07-13T03:39:20;4.47;;;1.10;;
23702;SDS011;12030;50.376;8.762;2023-07-13T03:41:46;2.13;;;0.90;;
23702;SDS011;12030;50.376;8.762;2023-07-13T03:44:11;3.95;;;1.05;;
23702;SDS011;12030;50.376;8.762;2023-07-13T03:46:37;2.65;;;0.88;;
23702;SDS011;12030;50.376;8.762;2023-07-13T03:49:03;3.33;;;1.00;;
23702;SDS011;12030;50.376;8.762;2023-07-13T03:51:30;3.40;;;1.20;;
23702;SDS011;12030;50.376;8.762;2023-07-13T03:53:56;5.00;;;1.10;;
23702;SDS011;12030;50.376;8.762;2023-07-13T03:56:21;2.40;;;1.00;;
23702;SDS011;12030;50.376;8.762;2023-07-13T03:58:48;3.13;;;1.00;;
23702;SDS011;12030;50.376;8.762;2023-07-13T04:01:14;2.53;;;0.95;;
23702;SDS011;12030;50.376;8.762;2023-07-13T04:03:41;3.80;;;1.20;;
23702;SDS011;12030;50.376;8.762;2023-07-13T04:06:08;3.67;;;1.23;;
23702;SDS011;12030;50.376;8.762;2023-07-13T04:08:49;2.75;;;1.08;;
23702;SDS011;12030;50.376;8.762;2023-07-13T04:11:18;3.60;;;1.20;;
23702;SDS011;12030;50.376;8.762;2023-07-13T04:13:45;3.15;;;1.00;;
23702;SDS011;12030;50.376;8.762;2023-07-13T04:16:11;2.70;;;1.10;;
23702;SDS011;12030;50.376;8.762;2023-07-13T04:18:38;4.57;;;0.90;;
23702;SDS011;12030;50.376;8.762;2023-07-13T04:21:04;3.53;;;1.00;;
23702;SDS011;12030;50.376;8.762;2023-07-13T04:23:29;2.42;;;0.90;;
23702;SDS011;12030;50.376;8.762;2023-07-13T04:25:55;2.33;;;0.97;;
23702;SDS011;12030;50.376;8.762;2023-07-13T04:28:25;3.80;;;1.10;;
23702;SDS011;12030;50.376;8.762;2023-07-13T04:30:52;3.07;;;1.07;;
23702;SDS011;12030;50.376;8.762;2023-07-13T04:33:18;4.40;;;1.13;;
23702;SDS011;12030;50.376;8.762;2023-07-13T04:35:47;3.10;;;1.08;;
23702;SDS011;12030;50.376;8.762;2023-07-13T04:38:13;3.70;;;0.93;;
23702;SDS011;12030;50.376;8.762;2023-07-13T04:40:41;2.57;;;0.97;;
23702;SDS011;12030;50.376;8.762;2023-07-13T04:43:09;3.70;;;1.23;;
23702;SDS011;12030;50.376;8.762;2023-07-13T04:45:35;2.77;;;1.00;;
23702;SDS011;12030;50.376;8.762;2023-07-13T04:48:01;3.05;;;0.93;;
23702;SDS011;12030;50.376;8.762;2023-07-13T04:50:26;3.30;;;1.20;;
23702;SDS011;12030;50.376;8.762;2023-07-13T04:52:52;2.80;;;0.97;;
23702;SDS011;12030;50.376;8.762;2023-07-13T04:55:18;2.70;;;0.90;;
23702;SDS011;12030;50.376;8.762;2023-07-13T04:57:44;4.28;;;0.90;;
23702;SDS011;12030;50.376;8.762;2023-07-13T05:00:11;3.40;;;1.05;;
23702;SDS011;12030;50.376;8.762;2023-07-13T05:02:38;4.60;;;1.15;;
23702;SDS011;12030;50.376;8.762;2023-07-13T05:05:05;4.93;;;1.13;;
23702;SDS011;12030;50.376;8.762;2023-07-13T05:07:31;3.15;;;1.10;;
23702;SDS011;12030;50.376;8.762;2023-07-13T05:09:58;3.28;;;0.93;;
23702;SDS011;12030;50.376;8.762;2023-07-13T05:12:24;4.50;;;1.50;;
23702;SDS011;12030;50.376;8.762;2023-07-13T05:14:50;3.50;;;1.10;;
23702;SDS011;12030;50.376;8.762;2023-07-13T05:17:16;3.43;;;1.07;;
23702;SDS011;12030;50.376;8.762;2023-07-13T05:19:41;2.73;;;1.00;;
23702;SDS011;12030;50.376;8.762;2023-07-13T05:22:07;2.60;;;1.00;;
23702;SDS011;12030;50.376;8.762;2023-07-13T05:24:33;4.72;;;1.00;;
23702;SDS011;12030;50.376;8.762;2023-07-13T05:26:58;5.25;;;1.00;;
23702;SDS011;12030;50.376;8.762;2023-07-13T05:29:24;3.80;;;1.10;;
23702;SDS011;12030;50.376;8.762;2023-07-13T05:31:50;2.90;;;0.80;;
23702;SDS011;12030;50.376;8.762;2023-07-13T05:34:15;3.85;;;0.90;;
23702;SDS011;12030;50.376;8.762;2023-07-13T05:36:41;3.47;;;0.80;;
23702;SDS011;12030;50.376;8.762;2023-07-13T05:39:06;2.75;;;0.95;;
23702;SDS011;12030;50.376;8.762;2023-07-13T05:41:32;1.87;;;0.90;;
23702;SDS011;12030;50.376;8.762;2023-07-13T05:43:57;2.20;;;0.70;;
23702;SDS011;12030;50.376;8.762;2023-07-13T05:46:23;2.33;;;0.70;;
23702;SDS011;12030;50.376;8.762;2023-07-13T05:48:49;2.15;;;0.70;;
23702;SDS011;12030;50.376;8.762;2023-07-13T05:51:15;1.77;;;0.73;;
23702;SDS011;12030;50.376;8.762;2023-07-13T05:53:40;3.50;;;0.93;;
23702;SDS011;12030;50.376;8.762;2023-07-13T05:56:06;3.00;;;0.90;;
23702;SDS011;12030;50.376;8.762;2023-07-13T05:58:31;1.97;;;0.90;;
23702;SDS011;12030;50.376;8.762;2023-07-13T06:01:01;4.90;;;1.13;;
23702;SDS011;12030;50.376;8.762;2023-07-13T06:03:30;3.50;;;0.90;;
23702;SDS011;12030;50.376;8.762;2023-07-13T06:05:56;3.03;;;0.90;;
23702;SDS011;12030;50.376;8.762;2023-07-13T06:08:22;3.92;;;0.90;;
23702;SDS011;12030;50.376;8.762;2023-07-13T06:10:47;3.57;;;0.90;;
23702;SDS011;12030;50.376;8.762;2023-07-13T06:13:13;2.77;;;0.83;;
23702;SDS011;12030;50.376;8.762;2023-07-13T06:15:38;3.77;;;1.10;;
23702;SDS011;12030;50.376;8.762;2023-07-13T06:18:04;2.53;;;0.70;;
23702;SDS011;12030;50.376;8.762;2023-07-13T06:20:29;3.13;;;0.70;;
23702;SDS011;12030;50.376;8.762;2023-07-13T06:22:55;3.10;;;0.87;;
23702;SDS011;12030;50.376;8.762;2023-07-13T06:25:20;1.83;;;0.80;;
23702;SDS011;12030;50.376;8.762;2023-07-13T06:27:46;3.70;;;0.80;;
23702;SDS011;12030;50.376;8.762;2023-07-13T06:30:12;2.90;;;0.70;;
23702;SDS011;12030;50.376;8.762;2023-07-13T06:32:37;2.72;;;0.88;;
23702;SDS011;12030;50.376;8.762;2023-07-13T06:35:03;3.70;;;0.70;;
23702;SDS011;12030;50.376;8.762;2023-07-13T06:37:29;2.53;;;0.75;;
23702;SDS011;12030;50.376;8.762;2023-07-13T06:39:55;4.15;;;0.88;;
23702;SDS011;12030;50.376;8.762;2023-07-13T06:42:20;2.53;;;0.60;;
23702;SDS011;12030;50.376;8.762;2023-07-13T06:44:46;3.05;;;0.60;;
23702;SDS011;12030;50.376;8.762;2023-07-13T06:47:11;1.60;;;0.55;;
23702;SDS011;12030;50.376;8.762;2023-07-13T06:49:37;1.50;;;0.50;;
23702;SDS011;12030;50.376;8.762;2023-07-13T06:52:03;2.50;;;0.50;;
23702;SDS011;12030;50.376;8.762;2023-07-13T06:54:29;1.77;;;0.57;;
23702;SDS011;12030;50.376;8.762;2023-07-13T06:56:54;2.07;;;0.60;;
23702;SDS011;12030;50.376;8.762;2023-07-13T06:59:20;1.58;;;0.70;;
23702;SDS011;12030;50.376;8.762;2023-07-13T07:01:45;1.63;;;0.60;;
23702;SDS011;12030;50.376;8.762;2023-07-13T07:04:11;2.35;;;0.60;;
23702;SDS011;12030;50.376;8.762;2023-07-13T07:06:36;1.02;;;0.40;;
23702;SDS011;12030;50.376;8.762;2023-07-13T07:09:02;1.60;;;0.50;;
23702;SDS011;12030;50.376;8.762;2023-07-13T07:11:28;2.35;;;0.60;;
23702;SDS011;12030;50.376;8.762;2023-07-13T07:13:53;1.30;;;0.50;;
23702;SDS011;12030;50.376;8.762;2023-07-13T07:16:19;1.97;;;0.50;;
23702;SDS011;12030;50.376;8.762;2023-07-13T07:18:46;1.55;;;0.52;;
23702;SDS011;12030;50.376;8.762;2023-07-13T07:21:12;2.05;;;0.55;;
23702;SDS011;12030;50.376;8.762;2023-07-13T07:23:39;1.60;;;0.47;;
23702;SDS011;12030;50.376;8.762;2023-07-13T07:26:05;2.35;;;0.70;;
23702;SDS011;12030;50.376;8.762;2023-07-13T07:28:32;0.77;;;0.57;;
23702;SDS011;12030;50.376;8.762;2023-07-13T07:30:58;2.47;;;0.70;;
23702;SDS011;12030;50.376;8.762;2023-07-13T07:33:24;1.67;;;0.35;;
23702;SDS011;12030;50.376;8.762;2023-07-13T07:35:50;1.98;;;0.50;;
23702;SDS011;12030;50.376;8.762;2023-07-13T07:38:16;1.48;;;0.50;;
23702;SDS011;12030;50.376;8.762;2023-07-13T07:40:42;2.63;;;0.50;;
23702;SDS011;12030;50.376;8.762;2023-07-13T07:43:08;2.60;;;0.55;;
23702;SDS011;12030;50.376;8.762;2023-07-13T07:45:35;0.90;;;0.40;;
23702;SDS011;12030;50.376;8.762;2023-07-13T07:48:02;1.58;;;0.52;;
23702;SDS011;12030;50.376;8.762;2023-07-13T07:50:29;1.80;;;0.40;;
23702;SDS011;12030;50.376;8.762;2023-07-13T07:52:55;1.65;;;0.47;;
23702;SDS011;12030;50.376;8.762;2023-07-13T07:55:21;2.53;;;0.68;;
23702;SDS011;12030;50.376;8.762;2023-07-13T07:57:48;1.40;;;0.50;;
23702;SDS011;12030;50.376;8.762;2023-07-13T08:00:14;1.98;;;0.80;;
23702;SDS011;12030;50.376;8.762;2023-07-13T08:02:40;1.70;;;0.40;;
23702;SDS011;12030;50.376;8.762;2023-07-13T08:05:06;1.60;;;0.50;;
23702;SDS011;12030;50.376;8.762;2023-07-13T08:07:33;2.20;;;0.50;;
23702;SDS011;12030;50.376;8.762;2023-07-13T08:09:58;1.55;;;0.50;;
23702;SDS011;12030;50.376;8.762;2023-07-13T08:12:24;1.90;;;0.80;;
23702;SDS011;12030;50.376;8.762;2023-07-13T08:14:50;1.60;;;0.40;;
23702;SDS011;12030;50.376;8.762;2023-07-13T08:17:18;1.23;;;0.35;;
23702;SDS011;12030;50.376;8.762;2023-07-13T08:19:47;1.95;;;0.70;;
23702;SDS011;12030;50.376;8.762;2023-07-13T08:22:12;2.70;;;0.60;;
23702;SDS011;12030;50.376;8.762;2023-07-13T08:24:38;2.73;;;0.50;;
23702;SDS011;12030;50.376;8.762;2023-07-13T08:27:03;1.20;;;0.40;;
23702;SDS011;12030;50.376;8.762;2023-07-13T08:29:29;2.42;;;0.30;;
23702;SDS011;12030;50.376;8.762;2023-07-13T08:31:57;2.97;;;0.50;;
23702;SDS011;12030;50.376;8.762;2023-07-13T08:34:23;0.53;;;0.30;;
23702;SDS011;12030;50.376;8.762;2023-07-13T08:36:48;2.53;;;0.40;;
23702;SDS011;12030;50.376;8.762;2023-07-13T08:39:14;2.30;;;0.40;;
23702;SDS011;12030;50.376;8.762;2023-07-13T08:41:39;1.20;;;0.33;;
23702;SDS011;12030;50.376;8.762;2023-07-13T08:44:05;0.70;;;0.40;;
23702;SDS011;12030;50.376;8.762;2023-07-13T08:46:45;1.17;;;0.38;;
23702;SDS011;12030;50.376;8.762;2023-07-13T08:49:13;1.08;;;0.50;;
23702;SDS011;12030;50.376;8.762;2023-07-13T08:51:55;2.50;;;0.55;;
23702;SDS011;12030;50.376;8.762;2023-07-13T08:54:37;1.90;;;0.40;;
23702;SDS011;12030;50.376;8.762;2023-07-13T08:57:14;0.95;;;0.47;;
23702;SDS011;12030;50.376;8.762;2023-07-13T08:59:41;1.55;;;0.50;;
23702;SDS011;12030;50.376;8.762;2023-07-13T09:02:27;1.00;;;0.30;;
23702;SDS011;12030;50.376;8.762;2023-07-13T09:05:15;2.10;;;0.52;;
23702;SDS011;12030;50.376;8.762;2023-07-13T09:11:00;1.00;;;0.40;;
23702;SDS011;12030;50.376;8.762;2023-07-13T09:16:19;2.30;;;0.50;;
23702;SDS011;12030;50.376;8.762;2023-07-13T09:18:49;1.27;;;0.43;;
23702;SDS011;12030;50.376;8.762;2023-07-13T09:21:19;1.65;;;0.40;;
23702;SDS011;12030;50.376;8.762;2023-07-13T09:23:52;1.30;;;0.40;;
23702;SDS011;12030;50.376;8.762;2023-07-13T09:26:22;0.70;;;0.30;;
23702;SDS011;12030;50.376;8.762;2023-07-13T09:28:56;1.13;;;0.40;;
23702;SDS011;12030;50.376;8.762;2023-07-13T09:31:37;0.93;;;0.40;;
23702;SDS011;12030;50.376;8.762;2023-07-13T09:34:09;1.27;;;0.40;;
23702;SDS011;12030;50.376;8.762;2023-07-13T09:36:36;3.67;;;0.40;;
23702;SDS011;12030;50.376;8.762;2023-07-13T09:41:36;1.88;;;0.40;;
23702;SDS011;12030;50.376;8.762;2023-07-13T09:44:12;0.60;;;0.30;;
23702;SDS011;12030;50.376;8.762;2023-07-13T09:46:43;1.80;;;0.40;;
23702;SDS011;12030;50.376;8.762;2023-07-13T09:49:10;1.80;;;0.40;;
23702;SDS011;12030;50.376;8.762;2023-07-13T09:51:45;0.88;;;0.40;;
23702;SDS011;12030;50.376;8.762;2023-07-13T09:54:21;1.10;;;0.40;;
23702;SDS011;12030;50.376;8.762;2023-07-13T09:56:56;2.30;;;0.43;;
23702;SDS011;12030;50.376;8.762;2023-07-13T09:59:24;1.52;;;0.43;;
23702;SDS011;12030;50.376;8.762;2023-07-13T10:01:53;1.60;;;0.50;;
23702;SDS011;12030;50.376;8.762;2023-07-13T10:04:20;1.90;;;0.40;;
23702;SDS011;12030;50.376;8.762;2023-07-13T10:06:51;1.67;;;0.40;;
23702;SDS011;12030;50.376;8.762;2023-07-13T10:09:33;1.40;;;0.45;;
23702;SDS011;12030;50.376;8.762;2023-07-13T10:11:59;1.90;;;0.70;;
23702;SDS011;12030;50.376;8.762;2023-07-13T10:14:24;0.83;;;0.40;;
23702;SDS011;12030;50.376;8.762;2023-07-13T10:16:52;0.70;;;0.40;;
23702;SDS011;12030;50.376;8.762;2023-07-13T10:19:27;1.48;;;0.50;;
23702;SDS011;12030;50.376;8.762;2023-07-13T10:22:01;2.80;;;1.00;;
23702;SDS011;12030;50.376;8.762;2023-07-13T10:24:38;1.40;;;0.50;;
23702;SDS011;12030;50.376;8.762;2023-07-13T10:29:45;2.10;;;0.60;;
23702;SDS011;12030;50.376;8.762;2023-07-13T10:32:15;2.25;;;0.52;;
23702;SDS011;12030;50.376;8.762;2023-07-13T10:34:41;1.37;;;0.63;;
23702;SDS011;12030;50.376;8.762;2023-07-13T10:37:20;0.80;;;0.47;;
23702;SDS011;12030;50.376;8.762;2023-07-13T10:39:50;2.30;;;0.70;;
23702;SDS011;12030;50.376;8.762;2023-07-13T10:45:02;1.73;;;0.60;;
23702;SDS011;12030;50.376;8.762;2023-07-13T10:47:47;2.60;;;0.70;;
23702;SDS011;12030;50.376;8.762;2023-07-13T10:50:16;2.30;;;0.70;;
23702;SDS011;12030;50.376;8.762;2023-07-13T10:52:48;1.25;;;0.50;;
23702;SDS011;12030;50.376;8.762;2023-07-13T10:55:31;1.52;;;0.50;;
23702;SDS011;12030;50.376;8.762;2023-07-13T10:58:02;1.67;;;0.65;;
23702;SDS011;12030;50.376;8.762;2023-07-13T11:00:49;1.60;;;0.50;;
23702;SDS011;12030;50.376;8.762;2023-07-13T11:03:28;1.52;;;0.80;;
23702;SDS011;12030;50.376;8.762;2023-07-13T11:08:35;2.40;;;0.70;;
23702;SDS011;12030;50.376;8.762;2023-07-13T11:11:02;1.30;;;0.60;;
23702;SDS011;12030;50.376;8.762;2023-07-13T11:18:47;1.30;;;0.60;;
23702;SDS011;12030;50.376;8.762;2023-07-13T11:21:25;1.67;;;0.70;;
23702;SDS011;12030;50.376;8.762;2023-07-13T11:26:42;1.60;;;0.70;;
23702;SDS011;12030;50.376;8.762;2023-07-13T11:31:57;1.50;;;0.70;;
23702;SDS011;12030;50.376;8.762;2023-07-13T11:34:45;1.57;;;0.70;;
23702;SDS011;12030;50.376;8.762;2023-07-13T11:37:12;1.63;;;0.60;;
23702;SDS011;12030;50.376;8.762;2023-07-13T11:39:41;2.13;;;0.80;;
23702;SDS011;12030;50.376;8.762;2023-07-13T11:42:10;1.73;;;0.70;;
23702;SDS011;12030;50.376;8.762;2023-07-13T11:44:44;2.17;;;0.63;;
23702;SDS011;12030;50.376;8.762;2023-07-13T11:47:17;1.65;;;0.60;;
23702;SDS011;12030;50.376;8.762;2023-07-13T11:49:47;2.63;;;0.90;;
23702;SDS011;12030;50.376;8.762;2023-07-13T11:52:17;1.30;;;0.60;;
23702;SDS011;12030;50.376;8.762;2023-07-13T11:54:55;1.17;;;0.60;;
23702;SDS011;12030;50.376;8.762;2023-07-13T11:59:48;3.03;;;0.73;;
23702;SDS011;12030;50.376;8.762;2023-07-13T12:02:17;3.20;;;0.70;;
23702;SDS011;12030;50.376;8.762;2023-07-13T12:04:50;1.65;;;0.50;;
23702;SDS011;12030;50.376;8.762;2023-07-13T12:07:17;1.50;;;0.60;;
23702;SDS011;12030;50.376;8.762;2023-07-13T12:09:44;3.85;;;0.70;;
23702;SDS011;12030;50.376;8.762;2023-07-13T12:12:14;4.70;;;0.77;;
23702;SDS011;12030;50.376;8.762;2023-07-13T12:14:42;1.30;;;0.65;;
23702;SDS011;12030;50.376;8.762;2023-07-13T12:17:13;1.07;;;0.57;;
23702;SDS011;12030;50.376;8.762;2023-07-13T12:19:50;2.13;;;0.70;;
23702;SDS011;12030;50.376;8.762;2023-07-13T12:22:18;1.23;;;0.50;;
23702;SDS011;12030;50.376;8.762;2023-07-13T12:24:45;2.40;;;0.77;;
23702;SDS011;12030;50.376;8.762;2023-07-13T12:27:25;1.25;;;0.57;;
23702;SDS011;12030;50.376;8.762;2023-07-13T12:30:03;2.90;;;0.80;;
23702;SDS011;12030;50.376;8.762;2023-07-13T12:32:59;2.72;;;0.63;;
23702;SDS011;12030;50.376;8.762;2023-07-13T12:35:30;2.58;;;0.70;;
23702;SDS011;12030;50.376;8.762;2023-07-13T12:37:58;1.40;;;0.50;;
23702;SDS011;12030;50.376;8.762;2023-07-13T12:40:26;1.48;;;0.60;;
23702;SDS011;12030;50.376;8.762;2023-07-13T12:42:59;1.90;;;0.80;;
23702;SDS011;12030;50.376;8.762;2023-07-13T12:45:29;2.13;;;0.70;;
23702;SDS011;12030;50.376;8.762;2023-07-13T12:47:56;2.85;;;0.57;;
23702;SDS011;12030;50.376;8.762;2023-07-13T12:50:28;2.40;;;0.65;;
23702;SDS011;12030;50.376;8.762;2023-07-13T12:53:05;2.45;;;0.80;;
23702;SDS011;12030;50.376;8.762;2023-07-13T12:55:43;1.92;;;0.70;;
23702;SDS011;12030;50.376;8.762;2023-07-13T13:00:54;2.20;;;0.80;;
23702;SDS011;12030;50.376;8.762;2023-07-13T13:03:35;1.90;;;0.90;;
23702;SDS011;12030;50.376;8.762;2023-07-13T13:08:45;2.03;;;0.77;;
23702;SDS011;12030;50.376;8.762;2023-07-13T13:11:13;3.95;;;0.80;;
23702;SDS011;12030;50.376;8.762;2023-07-13T13:13:41;3.38;;;0.70;;
23702;SDS011;12030;50.376;8.762;2023-07-13T13:16:14;2.20;;;0.70;;
23702;SDS011;12030;50.376;8.762;2023-07-13T13:18:47;2.03;;;0.75;;
23702;SDS011;12030;50.376;8.762;2023-07-13T13:21:17;1.60;;;0.50;;
23702;SDS011;12030;50.376;8.762;2023-07-13T13:23:44;2.35;;;0.70;;
23702;SDS011;12030;50.376;8.762;2023-07-13T13:26:11;1.52;;;0.73;;
23702;SDS011;12030;50.376;8.762;2023-07-13T13:28:40;1.90;;;0.80;;
23702;SDS011;12030;50.376;8.762;2023-07-13T13:31:07;2.08;;;0.70;;
23702;SDS011;12030;50.376;8.762;2023-07-13T13:33:37;1.98;;;0.70;;
23702;SDS011;12030;50.376;8.762;2023-07-13T13:36:08;1.58;;;0.60;;
23702;SDS011;12030;50.376;8.762;2023-07-13T13:38:38;3.08;;;0.73;;
23702;SDS011;12030;50.376;8.762;2023-07-13T13:41:04;2.60;;;0.80;;
23702;SDS011;12030;50.376;8.762;2023-07-13T13:43:30;3.17;;;0.80;;
23702;SDS011;12030;50.376;8.762;2023-07-13T13:45:57;2.15;;;0.70;;
23702;SDS011;12030;50.376;8.762;2023-07-13T13:48:32;4.40;;;1.10;;
23702;SDS011;12030;50.376;8.762;2023-07-13T13:50:59;2.40;;;0.70;;
23702;SDS011;12030;50.376;8.762;2023-07-13T13:53:26;3.15;;;0.63;;
23702;SDS011;12030;50.376;8.762;2023-07-13T13:55:52;2.13;;;0.87;;
23702;SDS011;12030;50.376;8.762;2023-07-13T13:58:20;1.67;;;0.87;;
23702;SDS011;12030;50.376;8.762;2023-07-13T14:00:46;1.45;;;0.60;;
23702;SDS011;12030;50.376;8.762;2023-07-13T14:03:16;2.67;;;0.80;;
23702;SDS011;12030;50.376;8.762;2023-07-13T14:05:43;2.27;;;0.80;;
23702;SDS011;12030;50.376;8.762;2023-07-13T14:08:12;2.45;;;0.93;;
23702;SDS011;12030;50.376;8.762;2023-07-13T14:10:44;2.80;;;0.90;;
23702;SDS011;12030;50.376;8.762;2023-07-13T14:13:22;2.95;;;0.88;;
23702;SDS011;12030;50.376;8.762;2023-07-13T14:15:52;2.10;;;0.98;;
23702;SDS011;12030;50.376;8.762;2023-07-13T14:18:18;2.67;;;0.73;;
23702;SDS011;12030;50.376;8.762;2023-07-13T14:20:44;2.33;;;0.82;;
23702;SDS011;12030;50.376;8.762;2023-07-13T14:23:12;2.92;;;1.00;;
23702;SDS011;12030;50.376;8.762;2023-07-13T14:25:39;2.13;;;0.90;;
23702;SDS011;12030;50.376;8.762;2023-07-13T14:28:12;2.83;;;0.70;;
23702;SDS011;12030;50.376;8.762;2023-07-13T14:30:45;2.80;;;0.90;;
23702;SDS011;12030;50.376;8.762;2023-07-13T14:33:12;2.75;;;0.93;;
23702;SDS011;12030;50.376;8.762;2023-07-13T14:35:38;3.60;;;0.90;;
23702;SDS011;12030;50.376;8.762;2023-07-13T14:38:04;1.38;;;0.57;;
23702;SDS011;12030;50.376;8.762;2023-07-13T14:40:33;2.63;;;0.80;;
23702;SDS011;12030;50.376;8.762;2023-07-13T14:42:59;1.80;;;0.80;;
23702;SDS011;12030;50.376;8.762;2023-07-13T14:45:25;3.17;;;0.80;;
23702;SDS011;12030;50.376;8.762;2023-07-13T14:47:51;2.03;;;0.63;;
23702;SDS011;12030;50.376;8.762;2023-07-13T14:50:18;1.77;;;0.80;;
23702;SDS011;12030;50.376;8.762;2023-07-13T14:52:55;2.03;;;0.70;;
23702;SDS011;12030;50.376;8.762;2023-07-13T14:55:20;2.55;;;0.85;;
23702;SDS011;12030;50.376;8.762;2023-07-13T14:57:46;2.73;;;0.80;;
23702;SDS011;12030;50.376;8.762;2023-07-13T15:00:13;2.35;;;0.70;;
23702;SDS011;12030;50.376;8.762;2023-07-13T15:02:50;2.70;;;0.82;;
23702;SDS011;12030;50.376;8.762;2023-07-13T15:05:20;1.73;;;0.73;;
23702;SDS011;12030;50.376;8.762;2023-07-13T15:07:50;2.67;;;0.80;;
23702;SDS011;12030;50.376;8.762;2023-07-13T15:10:19;1.67;;;0.80;;
23702;SDS011;12030;50.376;8.762;2023-07-13T15:12:47;2.77;;;0.60;;
23702;SDS011;12030;50.376;8.762;2023-07-13T15:15:13;1.63;;;0.50;;
23702;SDS011;12030;50.376;8.762;2023-07-13T15:17:40;1.20;;;0.50;;
23702;SDS011;12030;50.376;8.762;2023-07-13T15:20:26;1.35;;;0.50;;
23702;SDS011;12030;50.376;8.762;2023-07-13T15:22:55;1.50;;;0.53;;
23702;SDS011;12030;50.376;8.762;2023-07-13T15:25:22;1.27;;;0.70;;
23702;SDS011;12030;50.376;8.762;2023-07-13T15:27:49;1.55;;;0.77;;
23702;SDS011;12030;50.376;8.762;2023-07-13T15:30:16;1.52;;;0.50;;
23702;SDS011;12030;50.376;8.762;2023-07-13T15:32:42;1.50;;;0.60;;
23702;SDS011;12030;50.376;8.762;2023-07-13T15:35:15;1.87;;;0.80;;